createdAt,value
2017-02-15T00:00:42.218Z,1034.35
2017-02-15T00:02:04.730Z,1034.32
2017-02-15T00:03:27.629Z,1034.33
2017-02-15T00:04:49.776Z,1034.33
2017-02-15T00:06:10.698Z,1034.33
2017-02-15T00:07:32.854Z,1034.33
2017-02-15T00:08:54.956Z,1034.33
2017-02-15T00:10:18.229Z,1034.31
2017-02-15T00:11:40.060Z,1034.34
2017-02-15T00:13:02.558Z,1034.36
2017-02-15T00:14:24.249Z,1034.31
2017-02-15T00:15:47.529Z,1034.3
2017-02-15T00:17:09.679Z,1034.34
2017-02-15T00:18:31.401Z,1034.33
2017-02-15T00:19:53.576Z,1034.35
2017-02-15T00:21:16.380Z,1034.3
2017-02-15T00:22:39.282Z,1034.34
2017-02-15T00:24:02.172Z,1034.3
2017-02-15T00:25:25.180Z,1034.35
2017-02-15T00:26:47.151Z,1034.3
2017-02-15T00:28:08.914Z,1034.29
2017-02-15T00:29:31.499Z,1034.31
2017-02-15T00:30:53.623Z,1034.29
2017-02-15T00:32:16.050Z,1034.33
2017-02-15T00:33:38.710Z,1034.28
2017-02-15T00:35:01.192Z,1034.3
2017-02-15T00:36:22.880Z,1034.32
2017-02-15T00:37:44.962Z,1034.29
2017-02-15T00:39:07.079Z,1034.26
2017-02-15T00:40:28.829Z,1034.23
2017-02-15T00:41:51.327Z,1034.25
2017-02-15T00:43:13.752Z,1034.19
2017-02-15T00:44:35.480Z,1034.21
2017-02-15T00:45:57.636Z,1034.22
2017-02-15T00:47:19.809Z,1034.22
2017-02-15T00:48:43.042Z,1034.2
2017-02-15T00:50:05.538Z,1034.19
2017-02-15T00:51:27.637Z,1034.22
2017-02-15T00:52:49.467Z,1034.21
2017-02-15T00:54:10.622Z,1034.18
2017-02-15T00:55:32.737Z,1034.21
2017-02-15T00:56:54.980Z,1034.19
2017-02-15T00:58:16.683Z,1034.19
2017-02-15T00:59:39.500Z,1034.23
2017-02-15T01:01:01.728Z,1034.25
2017-02-15T01:02:23.435Z,1034.22
2017-02-15T01:03:45.230Z,1034.26
2017-02-15T01:05:07.771Z,1034.22
2017-02-15T01:06:30.000Z,1034.18
2017-02-15T01:07:52.109Z,1034.18
2017-02-15T01:09:14.261Z,1034.16
2017-02-15T01:10:37.109Z,1034.19
2017-02-15T01:11:59.609Z,1034.17
2017-02-15T01:13:22.511Z,1034.19
2017-02-15T01:14:45.016Z,1034.17
2017-02-15T01:16:07.758Z,1034.16
2017-02-15T01:17:29.852Z,1034.18
2017-02-15T01:18:51.622Z,1034.22
2017-02-15T01:20:13.863Z,1034.2
2017-02-15T01:21:36.686Z,1034.25
2017-02-15T01:22:58.404Z,1034.23
2017-02-15T01:24:20.916Z,1034.22
2017-02-15T01:25:43.131Z,1034.26
2017-02-15T01:27:05.677Z,1034.31
2017-02-15T01:28:27.791Z,1034.28
2017-02-15T01:29:50.321Z,1034.31
2017-02-15T01:31:12.840Z,1034.28
2017-02-15T01:32:34.789Z,1034.27
2017-02-15T01:33:56.476Z,1034.24
2017-02-15T01:35:19.009Z,1034.29
2017-02-15T01:36:41.181Z,1034.2
2017-02-15T01:38:03.641Z,1034.22
2017-02-15T01:39:25.331Z,1034.19
2017-02-15T01:40:47.925Z,1034.14
2017-02-15T01:42:09.608Z,1034.16
2017-02-15T01:43:31.946Z,1034.19
2017-02-15T01:44:53.669Z,1034.21
2017-02-15T01:46:15.758Z,1034.21
2017-02-15T01:47:37.471Z,1034.19
2017-02-15T01:48:59.830Z,1034.23
2017-02-15T01:50:22.751Z,1034.22
2017-02-15T01:51:44.939Z,1034.2
2017-02-15T01:53:07.079Z,1034.25
2017-02-15T01:54:29.077Z,1034.25
2017-02-15T01:55:50.778Z,1034.24
2017-02-15T01:57:12.869Z,1034.19
2017-02-15T01:58:34.958Z,1034.21
2017-02-15T01:59:57.367Z,1034.2
2017-02-15T02:01:19.479Z,1034.16
2017-02-15T02:02:42.400Z,1034.18
2017-02-15T02:04:04.499Z,1034.19
2017-02-15T02:05:26.599Z,1034.15
2017-02-15T02:06:49.610Z,1034.15
2017-02-15T02:08:12.104Z,1034.14
2017-02-15T02:09:34.220Z,1034.13
2017-02-15T02:10:56.749Z,1034.14
2017-02-15T02:12:19.265Z,1034.12
2017-02-15T02:13:40.561Z,1034.06
2017-02-15T02:15:03.112Z,1034.09
2017-02-15T02:16:24.730Z,1034.09
2017-02-15T02:17:46.866Z,1034.06
2017-02-15T02:19:09.413Z,1034.09
2017-02-15T02:20:31.895Z,1034.13
2017-02-15T02:21:54.701Z,1034.11
2017-02-15T02:23:17.204Z,1034.1
2017-02-15T02:24:39.309Z,1034.11
2017-02-15T02:26:01.796Z,1034.1
2017-02-15T02:27:24.300Z,1034.11
2017-02-15T02:28:45.599Z,1034.09
2017-02-15T02:30:07.378Z,1034.1
2017-02-15T02:31:29.244Z,1034.11
2017-02-15T02:32:51.636Z,1034.08
2017-02-15T02:34:13.977Z,1034.09
2017-02-15T02:35:35.746Z,1034.07
2017-02-15T02:36:57.060Z,1034.09
2017-02-15T02:38:19.478Z,1034.1
2017-02-15T02:39:41.958Z,1034.16
2017-02-15T02:41:03.760Z,1034.09
2017-02-15T02:42:26.318Z,1034.1
2017-02-15T02:43:48.749Z,1034.11
2017-02-15T02:45:11.233Z,1034.1
2017-02-15T02:46:32.985Z,1034.14
2017-02-15T02:47:54.700Z,1034.12
2017-02-15T02:49:17.177Z,1034.15
2017-02-15T02:50:38.874Z,1034.17
2017-02-15T02:52:01.021Z,1034.17
2017-02-15T02:53:22.756Z,1034.15
2017-02-15T02:54:45.491Z,1034.17
2017-02-15T02:56:07.620Z,1034.13
2017-02-15T02:57:29.352Z,1034.13
2017-02-15T02:58:51.430Z,1034.1
2017-02-15T03:00:13.535Z,1034.13
2017-02-15T03:01:35.276Z,1034.09
2017-02-15T03:02:56.669Z,1034.1
2017-02-15T03:04:18.766Z,1034.08
2017-02-15T03:05:41.673Z,1034.08
2017-02-15T03:07:04.250Z,1034.15
2017-02-15T03:08:25.622Z,1034.09
2017-02-15T03:09:47.818Z,1034.06
2017-02-15T03:11:09.919Z,1034.02
2017-02-15T03:12:32.024Z,1034
2017-02-15T03:13:54.608Z,1033.94
2017-02-15T03:15:16.500Z,1033.99
2017-02-15T03:16:39.297Z,1033.97
2017-02-15T03:18:01.005Z,1033.92
2017-02-15T03:19:23.128Z,1033.92
2017-02-15T03:20:45.283Z,1033.95
2017-02-15T03:22:08.513Z,1033.89
2017-02-15T03:23:31.377Z,1033.89
2017-02-15T03:24:53.074Z,1033.86
2017-02-15T03:26:15.159Z,1033.87
2017-02-15T03:27:36.853Z,1033.86
2017-02-15T03:28:58.980Z,1033.85
2017-02-15T03:30:20.255Z,1033.88
2017-02-15T03:31:43.308Z,1033.87
2017-02-15T03:33:05.318Z,1033.89
2017-02-15T03:34:27.037Z,1033.87
2017-02-15T03:35:49.149Z,1033.87
2017-02-15T03:37:10.847Z,1033.86
2017-02-15T03:38:33.699Z,1033.87
2017-02-15T03:39:56.611Z,1033.9
2017-02-15T03:41:19.619Z,1033.92
2017-02-15T03:42:42.099Z,1033.95
2017-02-15T03:44:04.150Z,1033.97
2017-02-15T03:45:27.073Z,1034.05
2017-02-15T03:46:49.190Z,1034.07
2017-02-15T03:48:11.289Z,1034.11
2017-02-15T03:49:33.750Z,1034.12
2017-02-15T03:50:56.300Z,1034.17
2017-02-15T03:52:18.808Z,1034.12
2017-02-15T03:53:41.893Z,1034.16
2017-02-15T03:55:04.285Z,1034.15
2017-02-15T03:56:26.802Z,1034.1
2017-02-15T03:57:49.000Z,1034.15
2017-02-15T03:59:11.491Z,1034.14
2017-02-15T04:00:33.415Z,1034.14
2017-02-15T04:01:55.213Z,1034.17
2017-02-15T04:03:17.760Z,1034.11
2017-02-15T04:04:39.852Z,1034.1
2017-02-15T04:06:02.729Z,1034.09
2017-02-15T04:07:24.839Z,1034.09
2017-02-15T04:08:47.342Z,1034.05
2017-02-15T04:10:09.032Z,1034.05
2017-02-15T04:11:31.502Z,1034.07
2017-02-15T04:12:54.022Z,1034.11
2017-02-15T04:14:16.123Z,1034.12
2017-02-15T04:15:38.629Z,1034.14
2017-02-15T04:17:00.269Z,1034.15
2017-02-15T04:18:21.563Z,1034.15
2017-02-15T04:19:44.181Z,1034.18
2017-02-15T04:21:07.091Z,1034.2
2017-02-15T04:22:29.067Z,1034.21
2017-02-15T04:23:51.967Z,1034.17
2017-02-15T04:25:14.486Z,1034.16
2017-02-15T04:26:36.162Z,1034.15
2017-02-15T04:27:58.954Z,1034.18
2017-02-15T04:29:21.501Z,1034.18
2017-02-15T04:30:43.660Z,1034.2
2017-02-15T04:32:04.971Z,1034.18
2017-02-15T04:33:27.884Z,1034.2
2017-02-15T04:34:49.190Z,1034.17
2017-02-15T04:36:11.303Z,1034.17
2017-02-15T04:37:34.245Z,1034.16
2017-02-15T04:38:56.192Z,1034.17
2017-02-15T04:40:18.431Z,1034.15
2017-02-15T04:41:40.536Z,1034.17
2017-02-15T04:43:03.033Z,1034.09
2017-02-15T04:44:24.806Z,1034.1
2017-02-15T04:45:46.515Z,1034.03
2017-02-15T04:47:08.734Z,1034.06
2017-02-15T04:48:30.806Z,1034.07
2017-02-15T04:49:53.154Z,1034.01
2017-02-15T04:51:14.861Z,1034
2017-02-15T04:52:37.092Z,1034.02
2017-02-15T04:53:58.889Z,1034.04
2017-02-15T04:55:20.044Z,1034.03
2017-02-15T04:56:42.705Z,1034.02
2017-02-15T04:58:05.391Z,1034.07
2017-02-15T04:59:27.489Z,1034.1
2017-02-15T05:00:50.264Z,1034.12
2017-02-15T05:02:11.980Z,1034.1
2017-02-15T05:03:34.495Z,1034.1
2017-02-15T05:04:56.186Z,1034.11
2017-02-15T05:06:18.293Z,1034.11
2017-02-15T05:07:40.454Z,1034.15
2017-02-15T05:09:02.543Z,1034.1
2017-02-15T05:10:24.332Z,1034.11
2017-02-15T05:11:46.734Z,1034.05
2017-02-15T05:13:09.224Z,1034.03
2017-02-15T05:14:31.754Z,1034.05
2017-02-15T05:15:54.314Z,1034.06
2017-02-15T05:17:15.942Z,1034.1
2017-02-15T05:18:38.449Z,1034.04
2017-02-15T05:20:00.944Z,1034.05
2017-02-15T05:21:23.083Z,1034
2017-02-15T05:22:45.066Z,1034.03
2017-02-15T05:24:06.778Z,1034.04
2017-02-15T05:25:29.371Z,1034.08
2017-02-15T05:26:51.891Z,1034.05
2017-02-15T05:28:14.275Z,1034.09
2017-02-15T05:29:36.803Z,1034.06
2017-02-15T05:30:58.902Z,1034.09
2017-02-15T05:32:21.401Z,1034.12
2017-02-15T05:33:44.223Z,1034.1
2017-02-15T05:35:05.531Z,1034.1
2017-02-15T05:36:28.292Z,1034.14
2017-02-15T05:37:50.117Z,1034.13
2017-02-15T05:39:12.531Z,1034.15
2017-02-15T05:40:34.717Z,1034.16
2017-02-15T05:41:56.801Z,1034.15
2017-02-15T05:43:20.672Z,1034.14
2017-02-15T05:44:43.574Z,1034.11
2017-02-15T05:46:05.703Z,1034.08
2017-02-15T05:47:27.428Z,1034.08
2017-02-15T05:48:50.048Z,1034.07
2017-02-15T05:50:12.836Z,1034.07
2017-02-15T05:51:34.134Z,1034.08
2017-02-15T05:52:55.048Z,1034.09
2017-02-15T05:54:16.094Z,1034.13
2017-02-15T05:55:38.905Z,1034.17
2017-02-15T05:57:01.431Z,1034.2
2017-02-15T05:58:23.924Z,1034.19
2017-02-15T05:59:46.842Z,1034.19
2017-02-15T06:01:09.606Z,1034.21
2017-02-15T06:02:31.348Z,1034.27
2017-02-15T06:03:53.467Z,1034.25
2017-02-15T06:05:15.553Z,1034.23
2017-02-15T06:06:38.819Z,1034.25
2017-02-15T06:08:00.644Z,1034.27
2017-02-15T06:09:23.172Z,1034.26
2017-02-15T06:10:45.000Z,1034.24
2017-02-15T06:12:07.386Z,1034.25
2017-02-15T06:13:29.881Z,1034.24
2017-02-15T06:14:51.580Z,1034.28
2017-02-15T06:16:13.690Z,1034.3
2017-02-15T06:17:36.084Z,1034.35
2017-02-15T06:18:58.209Z,1034.31
2017-02-15T06:20:20.313Z,1034.29
2017-02-15T06:21:42.817Z,1034.3
2017-02-15T06:23:04.772Z,1034.26
2017-02-15T06:24:27.191Z,1034.34
2017-02-15T06:25:49.752Z,1034.27
2017-02-15T06:27:11.072Z,1034.3
2017-02-15T06:28:33.882Z,1034.27
2017-02-15T06:29:55.972Z,1034.27
2017-02-15T06:31:19.101Z,1034.27
2017-02-15T06:32:40.903Z,1034.27
2017-02-15T06:34:03.572Z,1034.29
2017-02-15T06:35:25.692Z,1034.3
2017-02-15T06:36:47.844Z,1034.29
2017-02-15T06:38:10.364Z,1034.35
2017-02-15T06:39:32.353Z,1034.38
2017-02-15T06:40:54.870Z,1034.37
2017-02-15T06:42:17.382Z,1034.39
2017-02-15T06:43:39.096Z,1034.42
2017-02-15T06:45:01.589Z,1034.45
2017-02-15T06:46:24.505Z,1034.43
2017-02-15T06:47:46.208Z,1034.41
2017-02-15T06:49:08.006Z,1034.47
2017-02-15T06:50:30.000Z,1034.5
2017-02-15T06:51:53.022Z,1034.55
2017-02-15T06:53:14.733Z,1034.6
2017-02-15T06:54:36.854Z,1034.55
2017-02-15T06:55:59.684Z,1034.56
2017-02-15T06:57:21.812Z,1034.58
2017-02-15T06:58:43.512Z,1034.58
2017-02-15T07:00:05.285Z,1034.57
2017-02-15T07:01:27.671Z,1034.55
2017-02-15T07:02:49.371Z,1034.59
2017-02-15T07:04:11.919Z,1034.59
2017-02-15T07:05:34.944Z,1034.59
2017-02-15T07:06:57.352Z,1034.59
2017-02-15T07:08:19.872Z,1034.61
2017-02-15T07:09:42.134Z,1034.62
2017-02-15T07:11:04.215Z,1034.63
2017-02-15T07:12:26.560Z,1034.65
2017-02-15T07:13:48.251Z,1034.62
2017-02-15T07:15:09.561Z,1034.66
2017-02-15T07:16:31.398Z,1034.65
2017-02-15T07:17:53.343Z,1034.63
2017-02-15T07:19:15.456Z,1034.64
2017-02-15T07:20:37.284Z,1034.66
2017-02-15T07:22:00.235Z,1034.66
2017-02-15T07:23:22.717Z,1034.71
2017-02-15T07:24:45.617Z,1034.72
2017-02-15T07:26:08.232Z,1034.7
2017-02-15T07:27:30.336Z,1034.65
2017-02-15T07:28:53.211Z,1034.66
2017-02-15T07:30:14.949Z,1034.65
2017-02-15T07:31:36.787Z,1034.68
2017-02-15T07:32:58.215Z,1034.71
2017-02-15T07:34:20.648Z,1034.71
2017-02-15T07:35:42.771Z,1034.72
2017-02-15T07:37:04.482Z,1034.72
2017-02-15T07:38:26.209Z,1034.76
2017-02-15T07:39:49.071Z,1034.73
2017-02-15T07:41:11.211Z,1034.71
2017-02-15T07:42:33.378Z,1034.77
2017-02-15T07:43:55.962Z,1034.77
2017-02-15T07:45:19.005Z,1034.78
2017-02-15T07:46:41.517Z,1034.76
2017-02-15T07:48:04.659Z,1034.77
2017-02-15T07:49:26.983Z,1034.73
2017-02-15T07:50:51.045Z,1034.79
2017-02-15T07:52:14.159Z,1034.79
2017-02-15T07:53:38.761Z,1034.76
2017-02-15T07:55:02.680Z,1034.79
2017-02-15T07:56:25.784Z,1034.73
2017-02-15T07:57:48.945Z,1034.76
2017-02-15T07:59:12.182Z,1034.83
2017-02-15T08:00:34.891Z,1034.86
2017-02-15T08:01:56.561Z,1034.85
2017-02-15T08:03:18.783Z,1034.88
2017-02-15T08:04:41.378Z,1034.89
2017-02-15T08:06:03.952Z,1034.93
2017-02-15T08:07:26.808Z,1034.96
2017-02-15T08:08:48.945Z,1034.96
2017-02-15T08:10:11.062Z,1034.99
2017-02-15T08:11:33.268Z,1034.97
2017-02-15T08:12:55.721Z,1035.05
2017-02-15T08:14:18.653Z,1034.96
2017-02-15T08:15:41.348Z,1034.94
2017-02-15T08:17:03.858Z,1034.95
2017-02-15T08:18:26.386Z,1034.97
2017-02-15T08:19:48.492Z,1035
2017-02-15T08:21:11.012Z,1035.02
2017-02-15T08:22:33.523Z,1035.03
2017-02-15T08:23:55.684Z,1035.06
2017-02-15T08:25:18.225Z,1035.01
2017-02-15T08:26:40.930Z,1035.02
2017-02-15T08:28:03.860Z,1035.03
2017-02-15T08:29:25.836Z,1035.07
2017-02-15T08:30:48.412Z,1035.01
2017-02-15T08:32:10.951Z,1034.99
2017-02-15T08:33:33.062Z,1035.03
2017-02-15T08:34:55.535Z,1035.03
2017-02-15T08:36:17.253Z,1035.04
2017-02-15T08:37:39.832Z,1035.07
2017-02-15T08:39:01.924Z,1035.07
2017-02-15T08:40:23.952Z,1035.05
2017-02-15T08:41:46.259Z,1035.05
2017-02-15T08:43:09.161Z,1035.09
2017-02-15T08:44:31.135Z,1035.06
2017-02-15T08:45:54.320Z,1035.16
2017-02-15T08:47:16.451Z,1035.13
2017-02-15T08:48:39.389Z,1035.18
2017-02-15T08:50:01.529Z,1035.16
2017-02-15T08:51:23.620Z,1035.08
2017-02-15T08:52:46.311Z,1035.14
2017-02-15T08:54:08.007Z,1035.18
2017-02-15T08:55:30.112Z,1035.16
2017-02-15T08:56:52.501Z,1035.17
2017-02-15T08:58:15.006Z,1035.18
2017-02-15T08:59:37.525Z,1035.17
2017-02-15T09:00:59.719Z,1035.19
2017-02-15T09:02:22.180Z,1035.17
2017-02-15T09:03:44.684Z,1035.17
2017-02-15T09:05:07.522Z,1035.21
2017-02-15T09:06:29.652Z,1035.24
2017-02-15T09:07:51.621Z,1035.19
2017-02-15T09:09:13.341Z,1035.16
2017-02-15T09:10:35.436Z,1035.16
2017-02-15T09:11:57.140Z,1035.16
2017-02-15T09:13:19.939Z,1035.2
2017-02-15T09:14:42.455Z,1035.17
2017-02-15T09:16:04.157Z,1035.15
2017-02-15T09:17:26.260Z,1035.16
2017-02-15T09:18:48.617Z,1035.13
2017-02-15T09:20:10.322Z,1035.14
2017-02-15T09:21:32.458Z,1035.15
2017-02-15T09:22:55.003Z,1035.14
2017-02-15T09:24:17.884Z,1035.12
2017-02-15T09:25:39.978Z,1035.09
2017-02-15T09:27:02.477Z,1035.11
2017-02-15T09:28:24.590Z,1035.11
2017-02-15T09:29:47.346Z,1035.08
2017-02-15T09:31:09.911Z,1035.1
2017-02-15T09:32:32.069Z,1035.11
2017-02-15T09:33:54.568Z,1035.13
2017-02-15T09:35:16.975Z,1035.07
2017-02-15T09:36:39.890Z,1035.04
2017-02-15T09:38:02.421Z,1035.03
2017-02-15T09:39:25.418Z,1035.03
2017-02-15T09:40:47.916Z,1035.07
2017-02-15T09:42:10.050Z,1035.08
2017-02-15T09:43:31.795Z,1035.08
2017-02-15T09:44:54.418Z,1035.13
2017-02-15T09:46:16.945Z,1035.08
2017-02-15T09:47:39.478Z,1035.08
2017-02-15T09:49:01.170Z,1035.09
2017-02-15T09:50:23.670Z,1035.09
2017-02-15T09:51:46.443Z,1035.08
2017-02-15T09:53:09.330Z,1035.09
2017-02-15T09:54:31.046Z,1035.01
2017-02-15T09:55:53.279Z,1035.03
2017-02-15T09:57:16.499Z,1035.03
2017-02-15T09:58:39.035Z,1035.08
2017-02-15T10:00:00.819Z,1035.12
2017-02-15T10:01:22.952Z,1035.13
2017-02-15T10:02:44.967Z,1035.12
2017-02-15T10:04:07.128Z,1035.13
2017-02-15T10:05:29.736Z,1035.09
2017-02-15T10:06:51.447Z,1035.15
2017-02-15T10:08:14.211Z,1035.16
2017-02-15T10:09:37.128Z,1035.13
2017-02-15T10:10:59.770Z,1035.15
2017-02-15T10:12:21.887Z,1035.13
2017-02-15T10:13:44.762Z,1035.11
2017-02-15T10:15:06.877Z,1035.11
2017-02-15T10:16:29.379Z,1035.12
2017-02-15T10:17:52.382Z,1035.13
2017-02-15T10:19:15.768Z,1035.12
2017-02-15T10:20:38.686Z,1035.09
2017-02-15T10:22:00.021Z,1035.08
2017-02-15T10:23:21.714Z,1035.04
2017-02-15T10:24:44.141Z,1035.07
2017-02-15T10:26:05.587Z,1035.04
2017-02-15T10:27:28.082Z,1035.02
2017-02-15T10:28:50.256Z,1035.07
2017-02-15T10:30:13.027Z,1035
2017-02-15T10:31:36.188Z,1035.02
2017-02-15T10:32:58.308Z,1035.08
2017-02-15T10:34:20.805Z,1035.1
2017-02-15T10:35:43.818Z,1035.1
2017-02-15T10:37:06.331Z,1035.06
2017-02-15T10:38:28.951Z,1035.07
2017-02-15T10:39:51.230Z,1034.99
2017-02-15T10:41:13.592Z,1034.97
2017-02-15T10:42:36.096Z,1034.98
2017-02-15T10:43:58.237Z,1034.93
2017-02-15T10:45:20.381Z,1034.96
2017-02-15T10:46:43.107Z,1034.94
2017-02-15T10:48:05.219Z,1034.95
2017-02-15T10:49:26.941Z,1034.93
2017-02-15T10:50:49.054Z,1034.98
2017-02-15T10:52:11.457Z,1034.97
2017-02-15T10:53:32.769Z,1034.89
2017-02-15T10:54:54.883Z,1034.9
2017-02-15T10:56:16.599Z,1034.89
2017-02-15T10:57:39.996Z,1034.85
2017-02-15T10:59:02.930Z,1034.88
2017-02-15T11:00:25.051Z,1034.87
2017-02-15T11:01:47.202Z,1034.87
2017-02-15T11:03:09.709Z,1034.86
2017-02-15T11:04:31.994Z,1034.86
2017-02-15T11:05:54.603Z,1034.86
2017-02-15T11:07:17.145Z,1034.81
2017-02-15T11:08:39.934Z,1034.83
2017-02-15T11:10:02.077Z,1034.8
2017-02-15T11:11:23.840Z,1034.77
2017-02-15T11:12:45.577Z,1034.75
2017-02-15T11:14:08.450Z,1034.77
2017-02-15T11:15:30.649Z,1034.79
2017-02-15T11:16:52.774Z,1034.75
2017-02-15T11:18:14.892Z,1034.76
2017-02-15T11:19:37.360Z,1034.71
2017-02-15T11:20:59.601Z,1034.72
2017-02-15T11:22:22.624Z,1034.72
2017-02-15T11:24:16.789Z,1034.65
2017-02-15T11:25:39.200Z,1034.65
2017-02-15T11:27:01.324Z,1034.62
2017-02-15T11:28:23.860Z,1034.62
2017-02-15T11:29:45.537Z,1034.6
2017-02-15T11:31:08.458Z,1034.57
2017-02-15T11:32:30.580Z,1034.58
2017-02-15T11:33:53.093Z,1034.54
2017-02-15T11:35:15.942Z,1034.52
2017-02-15T11:36:37.282Z,1034.52
2017-02-15T11:37:59.822Z,1034.48
2017-02-15T11:39:22.340Z,1034.5
2017-02-15T11:40:45.122Z,1034.46
2017-02-15T11:42:07.217Z,1034.51
2017-02-15T11:43:29.858Z,1034.44
2017-02-15T11:44:51.999Z,1034.48
2017-02-15T11:46:14.518Z,1034.47
2017-02-15T11:47:37.046Z,1034.47
2017-02-15T11:48:59.948Z,1034.49
2017-02-15T11:50:22.495Z,1034.51
2017-02-15T11:51:45.259Z,1034.47
2017-02-15T11:53:07.001Z,1034.47
2017-02-15T11:54:29.486Z,1034.46
2017-02-15T11:55:52.471Z,1034.42
2017-02-15T11:57:14.916Z,1034.43
2017-02-15T11:58:37.465Z,1034.41
2017-02-15T12:00:00.042Z,1034.45
2017-02-15T12:01:22.181Z,1034.38
2017-02-15T12:02:44.688Z,1034.38
2017-02-15T12:04:06.816Z,1034.37
2017-02-15T12:05:29.331Z,1034.35
2017-02-15T12:06:51.549Z,1034.34
2017-02-15T12:08:14.338Z,1034.3
2017-02-15T12:09:36.468Z,1034.28
2017-02-15T12:10:58.990Z,1034.25
2017-02-15T12:12:20.919Z,1034.21
2017-02-15T12:13:43.771Z,1034.24
2017-02-15T12:15:05.948Z,1034.19
2017-02-15T12:16:28.068Z,1034.23
2017-02-15T12:17:49.407Z,1034.19
2017-02-15T12:19:11.481Z,1034.2
2017-02-15T12:20:33.179Z,1034.2
2017-02-15T12:21:54.964Z,1034.21
2017-02-15T12:23:16.713Z,1034.2
2017-02-15T12:24:40.330Z,1034.19
2017-02-15T12:26:02.903Z,1034.16
2017-02-15T12:27:24.650Z,1034.17
2017-02-15T12:28:47.173Z,1034.19
2017-02-15T12:30:09.553Z,1034.18
2017-02-15T12:31:31.671Z,1034.12
2017-02-15T12:32:54.172Z,1034.15
2017-02-15T12:34:16.316Z,1034.15
2017-02-15T12:35:38.609Z,1034.15
2017-02-15T12:37:00.834Z,1034.15
2017-02-15T12:38:22.557Z,1034.13
2017-02-15T12:39:44.692Z,1034.14
2017-02-15T12:41:07.116Z,1034.14
2017-02-15T12:42:29.648Z,1034.16
2017-02-15T12:43:51.740Z,1034.1
2017-02-15T12:45:14.829Z,1034.17
2017-02-15T12:46:36.898Z,1034.17
2017-02-15T12:47:59.511Z,1034.1
2017-02-15T12:49:22.047Z,1034.07
2017-02-15T12:50:44.647Z,1034.08
2017-02-15T12:52:07.147Z,1034.1
2017-02-15T12:53:30.076Z,1034.08
2017-02-15T12:54:51.808Z,1034.09
2017-02-15T12:56:14.348Z,1034.07
2017-02-15T12:57:37.640Z,1034.07
2017-02-15T12:58:59.799Z,1034.05
2017-02-15T13:00:21.965Z,1034.05
2017-02-15T13:01:44.204Z,1034.03
2017-02-15T13:03:06.571Z,1034.02
2017-02-15T13:04:28.385Z,1034.03
2017-02-15T13:05:51.051Z,1033.99
2017-02-15T13:07:14.256Z,1033.94
2017-02-15T13:08:35.869Z,1033.97
2017-02-15T13:09:58.796Z,1033.96
2017-02-15T13:11:20.162Z,1033.98
2017-02-15T13:12:42.267Z,1033.97
2017-02-15T13:14:05.148Z,1033.96
2017-02-15T13:15:27.269Z,1033.99
2017-02-15T13:16:49.428Z,1034
2017-02-15T13:18:11.985Z,1034.01
2017-02-15T13:19:35.189Z,1034.01
2017-02-15T13:20:56.917Z,1033.98
2017-02-15T13:22:19.028Z,1033.96
2017-02-15T13:23:41.580Z,1033.99
2017-02-15T13:25:04.703Z,1033.96
2017-02-15T13:26:27.249Z,1033.99
2017-02-15T13:27:50.230Z,1033.97
2017-02-15T13:29:12.443Z,1033.97
2017-02-15T13:30:35.271Z,1033.96
2017-02-15T13:31:56.983Z,1033.98
2017-02-15T13:33:19.611Z,1033.97
2017-02-15T13:34:42.149Z,1033.99
2017-02-15T13:36:04.957Z,1033.97
2017-02-15T13:37:27.500Z,1033.93
2017-02-15T13:38:49.643Z,1033.93
2017-02-15T13:40:12.629Z,1033.91
2017-02-15T13:41:35.117Z,1033.88
2017-02-15T13:42:57.356Z,1033.87
2017-02-15T13:44:20.277Z,1033.84
2017-02-15T13:45:42.875Z,1033.82
2017-02-15T13:47:06.117Z,1033.8
2017-02-15T13:48:28.676Z,1033.79
2017-02-15T13:49:51.698Z,1033.82
2017-02-15T13:51:13.422Z,1033.82
2017-02-15T13:52:35.862Z,1033.77
2017-02-15T13:53:58.399Z,1033.79
2017-02-15T13:55:20.237Z,1033.81
2017-02-15T13:56:42.873Z,1033.78
2017-02-15T13:58:05.815Z,1033.76
2017-02-15T13:59:28.935Z,1033.79
2017-02-15T14:00:51.032Z,1033.77
2017-02-15T14:02:13.309Z,1033.74
2017-02-15T14:03:34.935Z,1033.69
2017-02-15T14:04:56.692Z,1033.67
2017-02-15T14:06:18.804Z,1033.67
2017-02-15T14:07:41.721Z,1033.68
2017-02-15T14:09:04.546Z,1033.68
2017-02-15T14:10:27.168Z,1033.64
2017-02-15T14:11:49.351Z,1033.6
2017-02-15T14:13:11.546Z,1033.6
2017-02-15T14:14:33.924Z,1033.59
2017-02-15T14:15:56.550Z,1033.56
2017-02-15T14:17:18.382Z,1033.56
2017-02-15T14:18:40.928Z,1033.57
2017-02-15T14:20:02.927Z,1033.56
2017-02-15T14:21:26.037Z,1033.58
2017-02-15T14:22:47.756Z,1033.56
2017-02-15T14:24:10.082Z,1033.58
2017-02-15T14:25:32.954Z,1033.58
2017-02-15T14:26:55.165Z,1033.62
2017-02-15T14:28:16.880Z,1033.6
2017-02-15T14:29:39.430Z,1033.55
2017-02-15T14:31:01.862Z,1033.56
2017-02-15T14:32:24.411Z,1033.56
2017-02-15T14:33:46.122Z,1033.53
2017-02-15T14:35:08.354Z,1033.55
2017-02-15T14:36:30.767Z,1033.53
2017-02-15T14:37:52.541Z,1033.56
2017-02-15T14:39:14.771Z,1033.59
2017-02-15T14:40:36.507Z,1033.54
2017-02-15T14:41:59.350Z,1033.55
2017-02-15T14:43:21.852Z,1033.51
2017-02-15T14:44:44.035Z,1033.54
2017-02-15T14:46:05.353Z,1033.52
2017-02-15T14:47:27.843Z,1033.56
2017-02-15T14:48:50.401Z,1033.54
2017-02-15T14:50:12.178Z,1033.54
2017-02-15T14:51:34.762Z,1033.55
2017-02-15T14:52:57.252Z,1033.52
2017-02-15T14:54:19.414Z,1033.52
2017-02-15T14:55:41.961Z,1033.52
2017-02-15T14:57:04.117Z,1033.52
2017-02-15T14:58:26.950Z,1033.47
2017-02-15T14:59:49.915Z,1033.52
2017-02-15T15:01:12.839Z,1033.52
2017-02-15T15:02:34.959Z,1033.54
2017-02-15T15:03:58.241Z,1033.48
2017-02-15T15:05:19.756Z,1033.48
2017-02-15T15:06:42.410Z,1033.46
2017-02-15T15:08:04.927Z,1033.43
2017-02-15T15:09:27.791Z,1033.37
2017-02-15T15:10:49.883Z,1033.42
2017-02-15T15:12:12.816Z,1033.4
2017-02-15T15:13:35.497Z,1033.45
2017-02-15T15:14:57.862Z,1033.46
2017-02-15T15:16:20.384Z,1033.51
2017-02-15T15:17:42.932Z,1033.45
2017-02-15T15:19:05.456Z,1033.47
2017-02-15T15:20:28.354Z,1033.47
2017-02-15T15:21:51.524Z,1033.5
2017-02-15T15:23:13.663Z,1033.49
2017-02-15T15:24:36.181Z,1033.51
2017-02-15T15:25:59.028Z,1033.5
2017-02-15T15:27:21.161Z,1033.5
2017-02-15T15:28:44.120Z,1033.48
2017-02-15T15:30:07.120Z,1033.48
2017-02-15T15:31:29.632Z,1033.46
2017-02-15T15:32:52.621Z,1033.46
2017-02-15T15:34:15.230Z,1033.44
2017-02-15T15:35:37.794Z,1033.47
2017-02-15T15:37:00.443Z,1033.45
2017-02-15T15:38:23.402Z,1033.39
2017-02-15T15:39:45.744Z,1033.34
2017-02-15T15:41:08.723Z,1033.31
2017-02-15T15:42:31.726Z,1033.35
2017-02-15T15:43:53.881Z,1033.33
2017-02-15T15:45:16.422Z,1033.3
2017-02-15T15:46:38.953Z,1033.29
2017-02-15T15:48:01.840Z,1033.26
2017-02-15T15:49:24.042Z,1033.21
2017-02-15T15:50:45.808Z,1033.22
2017-02-15T15:52:07.951Z,1033.21
2017-02-15T15:53:30.387Z,1033.22
2017-02-15T15:54:53.315Z,1033.22
2017-02-15T15:56:15.459Z,1033.19
2017-02-15T15:57:37.679Z,1033.15
2017-02-15T15:59:00.458Z,1033.14
2017-02-15T16:00:23.000Z,1033.12
2017-02-15T16:01:46.102Z,1033.11
2017-02-15T16:03:08.242Z,1033.12
2017-02-15T16:04:31.481Z,1033.11
2017-02-15T16:05:54.032Z,1033.11
2017-02-15T16:07:16.172Z,1033.15
2017-02-15T16:08:39.116Z,1033.16
2017-02-15T16:10:02.089Z,1033.16
2017-02-15T16:11:24.658Z,1033.16
2017-02-15T16:12:46.786Z,1033.11
2017-02-15T16:14:09.369Z,1033.15
2017-02-15T16:15:32.525Z,1033.14
2017-02-15T16:16:55.129Z,1033.11
2017-02-15T16:18:17.671Z,1033.06
2017-02-15T16:19:40.166Z,1033.13
2017-02-15T16:21:03.068Z,1033.14
2017-02-15T16:22:25.690Z,1033.17
2017-02-15T16:23:47.017Z,1033.17
2017-02-15T16:25:09.418Z,1033.21
2017-02-15T16:26:31.874Z,1033.21
2017-02-15T16:27:54.407Z,1033.21
2017-02-15T16:29:17.349Z,1033.21
2017-02-15T16:30:39.881Z,1033.2
2017-02-15T16:32:02.860Z,1033.12
2017-02-15T16:33:25.249Z,1033.12
2017-02-15T16:34:48.244Z,1033.09
2017-02-15T16:36:11.163Z,1033.11
2017-02-15T16:37:33.561Z,1033.09
2017-02-15T16:38:56.115Z,1033.09
2017-02-15T16:40:19.311Z,1033.15